Norbank — PGIS — position and weather

sailwx.info

Track history (hours):
 
Tides and Currents Weather Stations Pressure Air Temp Water Temp Dewpoint Dewpoint Depression Visibility Wind Speed Wind Dir Waves Ship Positions

Norbank

Operator: P & O Ferries

Last reported at 2014-Sep-19 21:33 UTC. Time now 2014-Sep-19 22:01 UTC.
Position N 53°31' W 003°12'.

Length 167 m; draft 5.8 m.

Type: Ship (hazmat cat A). MMSI: 246213000.

Date/timePositionNaut miles runAvg speedWind from/ knotsBaromVisibWave heightAir tempDewpointWater temp
2014-Sep-19 21:33N 53°31' W 003°12'8 7.8
2014-Sep-19 20:33N 53°27' W 003°01'0 0.1
2014-Sep-19 18:16N 53°27' W 003°01'0 0.0
2014-Sep-19 17:28N 53°27' W 003°01'0 0.0
2014-Sep-19 16:15N 53°27' W 003°01'0 0.6
2014-Sep-19 15:33N 53°27' W 003°01'7 7.5
2014-Sep-19 14:33N 53°32' W 003°11'1818.0
2014-Sep-19 13:34N 53°31' W 003°41'1817.7
2014-Sep-19 12:33N 53°35' W 004°11'5 0.3
2014-Sep-18 23:14N 53°33' W 004°04'1217.6
2014-Sep-18 22:33N 53°33' W 003°43'1817.4
2014-Sep-18 21:33N 53°31' W 003°14'9 8.8
2014-Sep-18 20:33N 53°27' W 003°01'0 0.2
2014-Sep-18 18:33N 53°27' W 003°01'0 0.0
2014-Sep-18 17:27N 53°27' W 003°01'0 0.0
2014-Sep-18 16:32N 53°27' W 003°01'0 0.4
2014-Sep-18 15:31N 53°27' W 003°01'6 6.0
2014-Sep-18 14:33N 53°31' W 003°07'1918.7
2014-Sep-18 13:33N 53°31' W 003°39'2020.1
2014-Sep-18 12:33N 53°35' W 004°12'2318.6
2014-Sep-18 11:19N 53°35' W 004°51'28 2.3
2014-Sep-17 23:07N 53°34' W 004°03'1017.6
2014-Sep-17 22:34N 53°33' W 003°46'1717.4
2014-Sep-17 21:33N 53°32' W 003°17'1110.3
2014-Sep-17 20:32N 53°27' W 003°01'0 0.1
2014-Sep-17 17:11N 53°27' W 003°01'0 0.0
2014-Sep-17 16:23N 53°27' W 003°01'0 0.2
2014-Sep-17 15:33N 53°27' W 003°01'5 5.4
2014-Sep-17 14:33N 53°31' W 003°07'1919.2
2014-Sep-17 13:33N 53°31' W 003°39'1919.1
2014-Sep-17 12:33N 53°34' W 004°11'16 1.2
2014-Sep-16 22:34N 53°33' W 003°44'1918.8
2014-Sep-16 21:33N 53°31' W 003°13'8 8.1
2014-Sep-16 20:33N 53°27' W 003°01'0 0.4
2014-Sep-16 19:33N 53°27' W 003°01'0 0.0
2014-Sep-16 18:27N 53°27' W 003°01'0 0.0
2014-Sep-16 17:32N 53°27' W 003°01'0 0.0
2014-Sep-16 16:07N 53°27' W 003°01'1 1.6
2014-Sep-16 15:33N 53°27' W 003°01'5 4.4
2014-Sep-16 14:32N 53°30' W 003°06'1717.3
2014-Sep-16 13:33N 53°31' W 003°34'2019.9
2014-Sep-16 12:33N 53°34' W 004°07'2 0.1
2014-Sep-15 23:33N 53°34' W 004°09'1818.4
2014-Sep-15 22:33N 53°33' W 003°39'1818.0
2014-Sep-15 21:34N 53°32' W 003°08'6 6.3
2014-Sep-15 20:33N 53°27' W 003°01'0 0.3
2014-Sep-15 19:17N 53°27' W 003°01'0 0.0
2014-Sep-15 18:28N 53°27' W 003°01'0 0.0
2014-Sep-15 17:28N 53°27' W 003°01'0 0.0
2014-Sep-15 15:21N 53°27' W 003°01'0 0.0
2014-Sep-15 14:33N 53°27' W 003°01'0 0.0
2014-Sep-15 12:32N 53°27' W 003°01'0 0.0
2014-Sep-15 11:19N 53°27' W 003°01'0 0.0
2014-Sep-15 10:07N 53°27' W 003°01'0 0.0
2014-Sep-15 09:12N 53°27' W 003°01'0 0.0
2014-Sep-15 08:06N 53°27' W 003°01'0 0.0
2014-Sep-15 05:11N 53°27' W 003°01'0 0.7
2014-Sep-15 04:33N 53°27' W 003°01'7 7.0
2014-Sep-15 03:33N 53°32' W 003°10'1515.0
2014-Sep-15 02:33N 53°31' W 003°35'1414.3
2014-Sep-15 01:32N 53°33' W 003°59'27 1.0
2014-Sep-13 21:34N 53°31' W 003°13'3 0.4
2014-Sep-13 14:33N 53°32' W 003°09'1818.3
2014-Sep-13 13:33N 53°31' W 003°39'1919.1
2014-Sep-13 12:33N 53°34' W 004°11'8 0.6
2014-Sep-12 23:33N 53°33' W 003°57'1716.9
2014-Sep-12 22:33N 53°33' W 003°29'1613.4
2014-Sep-12 21:23N 53°28' W 003°04'5 0.7
2014-Sep-12 14:33N 53°32' W 003°09'1717.6
2014-Sep-12 13:33N 53°31' W 003°38'1716.9
2014-Sep-12 12:33N 53°34' W 004°06'36 3.3
2014-Sep-12 01:26N 53°30' W 005°07'1719.3
2014-Sep-12 00:33N 53°33' W 004°39'1817.9
2014-Sep-11 23:33N 53°33' W 004°09'1717.3
2014-Sep-11 22:33N 53°33' W 003°39'1716.6
2014-Sep-11 21:33N 53°31' W 003°12'8 7.8
2014-Sep-11 20:33N 53°27' W 003°01'0 0.4
2014-Sep-11 19:32N 53°27' W 003°01'0 0.0
2014-Sep-11 18:28N 53°27' W 003°01'0 0.0
2014-Sep-11 17:16N 53°27' W 003°01'0 0.0
2014-Sep-11 16:27N 53°27' W 003°01'0 0.4
2014-Sep-11 15:21N 53°27' W 003°01'8 9.6
2014-Sep-11 14:33N 53°31' W 003°12'1616.1
2014-Sep-11 13:33N 53°31' W 003°39'1716.6
2014-Sep-11 12:34N 53°34' W 004°06'1717.0
2014-Sep-11 11:33N 53°37' W 004°34'54 6.6
2014-Sep-11 03:27N 53°21' W 006°01'3314.9
2014-Sep-11 01:15N 53°29' W 005°08'1216.2
2014-Sep-11 00:29N 53°32' W 004°47'1819.2
2014-Sep-10 23:34N 53°33' W 004°18'1818.1
2014-Sep-10 22:34N 53°33' W 003°47'1717.4
2014-Sep-10 21:34N 53°32' W 003°18'11 8.9
2014-Sep-10 20:19N 53°27' W 003°01'0 0.2
2014-Sep-10 17:33N 53°27' W 003°01'0 0.2
2014-Sep-10 15:32N 53°27' W 003°01'4 4.4
2014-Sep-10 14:33N 53°30' W 003°06'1615.9
2014-Sep-10 13:33N 53°31' W 003°33'1717.2
2014-Sep-10 12:33N 53°33' W 004°01'1918.7
2014-Sep-10 11:33N 53°36' W 004°32'2620.2
2014-Sep-10 10:16N 53°30' W 005°15'5 0.6
2014-Sep-10 01:12N 53°29' W 005°07'1319.1
2014-Sep-10 00:30N 53°32' W 004°45'1818.9
2014-Sep-09 23:33N 53°33' W 004°15'1919.0
2014-Sep-09 22:33N 53°34' W 003°43'  
Track history (hours):
 
Tides and Currents Weather Stations Pressure Air Temp Water Temp Dewpoint Dewpoint Depression Visibility Wind Speed Wind Dir Waves Ship Positions

Norbank

Operator: P & O Ferries

Last reported at 2014-Sep-19 21:33 UTC. Time now 2014-Sep-19 22:01 UTC.
Position N 53°31' W 003°12'.

Length 167 m; draft 5.8 m.

Type: Ship (hazmat cat A). MMSI: 246213000.

Date/timePositionNaut miles runAvg speedWind from/ knotsBaromVisibWave heightAir tempDewpointWater temp
2014-Sep-19 21:33N 53°31' W 003°12'8 7.8
2014-Sep-19 20:33N 53°27' W 003°01'0 0.1
2014-Sep-19 18:16N 53°27' W 003°01'0 0.0
2014-Sep-19 17:28N 53°27' W 003°01'0 0.0
2014-Sep-19 16:15N 53°27' W 003°01'0 0.6
2014-Sep-19 15:33N 53°27' W 003°01'7 7.5
2014-Sep-19 14:33N 53°32' W 003°11'1818.0
2014-Sep-19 13:34N 53°31' W 003°41'1817.7
2014-Sep-19 12:33N 53°35' W 004°11'5 0.3
2014-Sep-18 23:14N 53°33' W 004°04'1217.6
2014-Sep-18 22:33N 53°33' W 003°43'1817.4
2014-Sep-18 21:33N 53°31' W 003°14'9 8.8
2014-Sep-18 20:33N 53°27' W 003°01'0 0.2
2014-Sep-18 18:33N 53°27' W 003°01'0 0.0
2014-Sep-18 17:27N 53°27' W 003°01'0 0.0
2014-Sep-18 16:32N 53°27' W 003°01'0 0.4
2014-Sep-18 15:31N 53°27' W 003°01'6 6.0
2014-Sep-18 14:33N 53°31' W 003°07'1918.7
2014-Sep-18 13:33N 53°31' W 003°39'2020.1
2014-Sep-18 12:33N 53°35' W 004°12'2318.6
2014-Sep-18 11:19N 53°35' W 004°51'28 2.3
2014-Sep-17 23:07N 53°34' W 004°03'1017.6
2014-Sep-17 22:34N 53°33' W 003°46'1717.4
2014-Sep-17 21:33N 53°32' W 003°17'1110.3
2014-Sep-17 20:32N 53°27' W 003°01'0 0.1
2014-Sep-17 17:11N 53°27' W 003°01'0 0.0
2014-Sep-17 16:23N 53°27' W 003°01'0 0.2
2014-Sep-17 15:33N 53°27' W 003°01'5 5.4
2014-Sep-17 14:33N 53°31' W 003°07'1919.2
2014-Sep-17 13:33N 53°31' W 003°39'1919.1
2014-Sep-17 12:33N 53°34' W 004°11'16 1.2
2014-Sep-16 22:34N 53°33' W 003°44'1918.8
2014-Sep-16 21:33N 53°31' W 003°13'8 8.1
2014-Sep-16 20:33N 53°27' W 003°01'0 0.4
2014-Sep-16 19:33N 53°27' W 003°01'0 0.0
2014-Sep-16 18:27N 53°27' W 003°01'0 0.0
2014-Sep-16 17:32N 53°27' W 003°01'0 0.0
2014-Sep-16 16:07N 53°27' W 003°01'1 1.6
2014-Sep-16 15:33N 53°27' W 003°01'5 4.4
2014-Sep-16 14:32N 53°30' W 003°06'1717.3
2014-Sep-16 13:33N 53°31' W 003°34'2019.9
2014-Sep-16 12:33N 53°34' W 004°07'2 0.1
2014-Sep-15 23:33N 53°34' W 004°09'1818.4
2014-Sep-15 22:33N 53°33' W 003°39'1818.0
2014-Sep-15 21:34N 53°32' W 003°08'6 6.3
2014-Sep-15 20:33N 53°27' W 003°01'0 0.3
2014-Sep-15 19:17N 53°27' W 003°01'0 0.0
2014-Sep-15 18:28N 53°27' W 003°01'0 0.0
2014-Sep-15 17:28N 53°27' W 003°01'0 0.0
2014-Sep-15 15:21N 53°27' W 003°01'0 0.0
2014-Sep-15 14:33N 53°27' W 003°01'0 0.0
2014-Sep-15 12:32N 53°27' W 003°01'0 0.0
2014-Sep-15 11:19N 53°27' W 003°01'0 0.0
2014-Sep-15 10:07N 53°27' W 003°01'0 0.0
2014-Sep-15 09:12N 53°27' W 003°01'0 0.0
2014-Sep-15 08:06N 53°27' W 003°01'0 0.0
2014-Sep-15 05:11N 53°27' W 003°01'0 0.7
2014-Sep-15 04:33N 53°27' W 003°01'7 7.0
2014-Sep-15 03:33N 53°32' W 003°10'1515.0
2014-Sep-15 02:33N 53°31' W 003°35'1414.3
2014-Sep-15 01:32N 53°33' W 003°59'27 1.0
2014-Sep-13 21:34N 53°31' W 003°13'3 0.4
2014-Sep-13 14:33N 53°32' W 003°09'1818.3
2014-Sep-13 13:33N 53°31' W 003°39'1919.1
2014-Sep-13 12:33N 53°34' W 004°11'8 0.6
2014-Sep-12 23:33N 53°33' W 003°57'1716.9
2014-Sep-12 22:33N 53°33' W 003°29'1613.4
2014-Sep-12 21:23N 53°28' W 003°04'5 0.7
2014-Sep-12 14:33N 53°32' W 003°09'1717.6
2014-Sep-12 13:33N 53°31' W 003°38'1716.9
2014-Sep-12 12:33N 53°34' W 004°06'36 3.3
2014-Sep-12 01:26N 53°30' W 005°07'1719.3
2014-Sep-12 00:33N 53°33' W 004°39'1817.9
2014-Sep-11 23:33N 53°33' W 004°09'1717.3
2014-Sep-11 22:33N 53°33' W 003°39'1716.6
2014-Sep-11 21:33N 53°31' W 003°12'8 7.8
2014-Sep-11 20:33N 53°27' W 003°01'0 0.4
2014-Sep-11 19:32N 53°27' W 003°01'0 0.0
2014-Sep-11 18:28N 53°27' W 003°01'0 0.0
2014-Sep-11 17:16N 53°27' W 003°01'0 0.0
2014-Sep-11 16:27N 53°27' W 003°01'0 0.4
2014-Sep-11 15:21N 53°27' W 003°01'8 9.6
2014-Sep-11 14:33N 53°31' W 003°12'1616.1
2014-Sep-11 13:33N 53°31' W 003°39'1716.6
2014-Sep-11 12:34N 53°34' W 004°06'1717.0
2014-Sep-11 11:33N 53°37' W 004°34'54 6.6
2014-Sep-11 03:27N 53°21' W 006°01'3314.9
2014-Sep-11 01:15N 53°29' W 005°08'1216.2
2014-Sep-11 00:29N 53°32' W 004°47'1819.2
2014-Sep-10 23:34N 53°33' W 004°18'1818.1
2014-Sep-10 22:34N 53°33' W 003°47'1717.4
2014-Sep-10 21:34N 53°32' W 003°18'11 8.9
2014-Sep-10 20:19N 53°27' W 003°01'0 0.2
2014-Sep-10 17:33N 53°27' W 003°01'0 0.2
2014-Sep-10 15:32N 53°27' W 003°01'4 4.4
2014-Sep-10 14:33N 53°30' W 003°06'1615.9
2014-Sep-10 13:33N 53°31' W 003°33'1717.2
2014-Sep-10 12:33N 53°33' W 004°01'1918.7
2014-Sep-10 11:33N 53°36' W 004°32'2620.2
2014-Sep-10 10:16N 53°30' W 005°15'5 0.6
2014-Sep-10 01:12N 53°29' W 005°07'1319.1
2014-Sep-10 00:30N 53°32' W 004°45'1818.9
2014-Sep-09 23:33N 53°33' W 004°15'1919.0
2014-Sep-09 22:33N 53°34' W 003°43'  

Dump ship's entire track history